createdAt,value
2023-03-07T00:00:16.814Z,24.21
2023-03-07T00:02:47.950Z,24.17
2023-03-07T00:05:18.843Z,24.10
2023-03-07T00:07:53.237Z,24.10
2023-03-07T00:10:24.607Z,24.06
2023-03-07T00:12:58.832Z,24.05
2023-03-07T00:15:29.454Z,24.02
2023-03-07T00:18:00.939Z,23.95
2023-03-07T00:20:32.263Z,23.92
2023-03-07T00:23:02.391Z,23.88
2023-03-07T00:25:33.393Z,23.85
2023-03-07T00:28:04.348Z,23.83
2023-03-07T00:30:35.513Z,23.79
2023-03-07T00:33:06.167Z,23.81
2023-03-07T00:35:41.097Z,23.78
2023-03-07T00:38:12.435Z,23.76
2023-03-07T00:40:47.393Z,23.72
2023-03-07T00:43:19.002Z,23.71
2023-03-07T00:45:50.467Z,23.69
2023-03-07T00:48:23.303Z,23.68
2023-03-07T00:50:55.026Z,23.70
2023-03-07T00:53:27.071Z,23.74
2023-03-07T00:56:05.440Z,23.75
2023-03-07T00:58:38.341Z,23.77
2023-03-07T01:01:12.066Z,23.80
2023-03-07T01:03:45.641Z,23.80
2023-03-07T01:06:18.643Z,23.81
2023-03-07T01:08:50.225Z,23.81
2023-03-07T01:11:23.923Z,23.84
2023-03-07T01:13:58.531Z,23.83
2023-03-07T01:16:34.800Z,23.84
2023-03-07T01:19:09.904Z,23.82
2023-03-07T01:21:42.096Z,23.82
2023-03-07T01:24:21.312Z,23.85
2023-03-07T01:26:52.764Z,23.84
2023-03-07T01:29:25.289Z,23.92
2023-03-07T01:31:56.447Z,23.94
2023-03-07T01:34:27.779Z,24.03
2023-03-07T01:37:03.712Z,24.12
2023-03-07T01:39:42.289Z,24.15
2023-03-07T01:42:17.631Z,24.17
2023-03-07T01:45:10.944Z,24.24
2023-03-07T01:47:43.038Z,24.28
2023-03-07T01:50:20.436Z,24.32
2023-03-07T01:53:10.750Z,24.30
2023-03-07T01:55:42.020Z,24.22
2023-03-07T01:58:16.385Z,24.15
2023-03-07T02:00:46.597Z,24.14
2023-03-07T02:03:33.773Z,24.07
2023-03-07T02:06:06.174Z,24.03
2023-03-07T02:08:37.484Z,24.03
2023-03-07T02:11:09.401Z,24.01
2023-03-07T02:13:40.741Z,23.99
2023-03-07T02:16:14.537Z,23.98
2023-03-07T02:18:50.389Z,23.97
2023-03-07T02:21:37.272Z,23.99
2023-03-07T02:24:34.050Z,23.98
2023-03-07T02:27:08.326Z,23.96
2023-03-07T02:29:39.483Z,23.95
2023-03-07T02:32:11.461Z,23.97
2023-03-07T02:34:41.593Z,23.94
2023-03-07T02:37:18.810Z,23.96
2023-03-07T02:39:55.965Z,23.95
2023-03-07T02:42:28.672Z,23.98
2023-03-07T02:45:04.218Z,23.98
2023-03-07T02:47:35.180Z,23.99
2023-03-07T02:50:06.536Z,24.00
2023-03-07T02:52:37.958Z,24.01
2023-03-07T02:55:09.533Z,23.98
2023-03-07T02:57:40.548Z,23.97
2023-03-07T03:00:14.434Z,23.97
2023-03-07T03:02:45.643Z,23.98
2023-03-07T03:05:16.667Z,23.97
2023-03-07T03:07:47.634Z,23.97
2023-03-07T03:10:19.424Z,23.98
2023-03-07T03:12:50.143Z,23.97
2023-03-07T03:15:20.697Z,23.99
2023-03-07T03:17:51.945Z,23.96
2023-03-07T03:20:23.154Z,23.99
2023-03-07T03:22:55.235Z,23.97
2023-03-07T03:25:27.360Z,23.96
2023-03-07T03:27:58.028Z,23.92
2023-03-07T03:30:30.354Z,23.95
2023-03-07T03:33:01.394Z,23.95
2023-03-07T03:35:32.240Z,23.97
2023-03-07T03:38:03.214Z,23.96
2023-03-07T03:40:34.229Z,23.99
2023-03-07T03:43:05.388Z,24.04
2023-03-07T03:45:36.056Z,24.01
2023-03-07T03:48:06.627Z,24.02
2023-03-07T03:50:37.284Z,24.00
2023-03-07T03:53:08.345Z,24.01
2023-03-07T03:55:38.793Z,24.06
2023-03-07T03:58:09.687Z,24.01
2023-03-07T04:00:39.898Z,24.00
2023-03-07T04:03:10.510Z,23.98
2023-03-07T04:05:45.133Z,23.98
2023-03-07T04:08:15.961Z,23.99
2023-03-07T04:10:47.741Z,23.98
2023-03-07T04:13:18.330Z,23.96
2023-03-07T04:15:48.425Z,23.97
2023-03-07T04:18:18.594Z,23.98
2023-03-07T04:20:48.935Z,23.94
2023-03-07T04:23:19.577Z,23.93
2023-03-07T04:25:58.979Z,23.93
2023-03-07T04:28:45.118Z,23.98
2023-03-07T04:31:16.378Z,23.95
2023-03-07T04:33:46.189Z,23.98
2023-03-07T04:36:17.852Z,23.98
2023-03-07T04:38:48.263Z,23.99
2023-03-07T04:41:19.796Z,24.00
2023-03-07T04:43:49.537Z,23.99
2023-03-07T04:46:19.393Z,23.99
2023-03-07T04:48:49.558Z,23.98
2023-03-07T04:51:19.181Z,23.99
2023-03-07T04:53:48.763Z,23.97
2023-03-07T04:56:18.496Z,23.97
2023-03-07T04:58:48.193Z,23.97
2023-03-07T05:01:18.148Z,23.98
2023-03-07T05:03:47.808Z,23.98
2023-03-07T05:06:17.925Z,23.99
2023-03-07T05:08:47.628Z,23.98
2023-03-07T05:11:17.428Z,23.99
2023-03-07T05:13:47.096Z,23.99
2023-03-07T05:16:19.137Z,24.00
2023-03-07T05:18:48.797Z,23.97
2023-03-07T05:21:18.452Z,23.97
2023-03-07T05:23:48.068Z,23.95
2023-03-07T05:26:17.769Z,23.94
2023-03-07T05:28:47.449Z,23.92
2023-03-07T05:31:18.428Z,23.92
2023-03-07T05:33:48.612Z,23.95
2023-03-07T05:36:18.757Z,23.99
2023-03-07T05:38:48.453Z,23.98
2023-03-07T05:41:18.981Z,23.96
2023-03-07T05:43:48.936Z,23.93
2023-03-07T05:46:18.720Z,23.98
2023-03-07T05:48:48.590Z,23.97
2023-03-07T05:51:18.315Z,23.98
2023-03-07T05:53:48.122Z,24.01
2023-03-07T05:56:17.765Z,23.94
2023-03-07T05:58:47.471Z,23.91
2023-03-07T06:01:17.195Z,23.93
2023-03-07T06:03:46.893Z,23.92
2023-03-07T06:06:16.608Z,23.95
2023-03-07T06:08:46.190Z,24.02
2023-03-07T06:11:15.938Z,24.08
2023-03-07T06:13:45.650Z,24.11
2023-03-07T06:16:15.375Z,24.09
2023-03-07T06:18:45.005Z,24.13
2023-03-07T06:21:16.891Z,24.15
2023-03-07T06:23:46.729Z,24.16
2023-03-07T06:26:16.620Z,24.17
2023-03-07T06:28:46.275Z,24.16
2023-03-07T06:31:17.901Z,24.17
2023-03-07T06:33:49.239Z,24.17
2023-03-07T06:36:19.893Z,24.17
2023-03-07T06:38:49.582Z,24.15
2023-03-07T06:41:19.394Z,24.15
2023-03-07T06:43:52.379Z,24.10
2023-03-07T06:46:23.116Z,24.07
2023-03-07T06:48:53.664Z,24.05
2023-03-07T06:51:23.226Z,24.03
2023-03-07T06:53:52.837Z,24.00
2023-03-07T06:56:22.501Z,23.99
2023-03-07T06:58:52.086Z,23.97
2023-03-07T07:01:22.435Z,23.95
2023-03-07T07:03:52.192Z,23.94
2023-03-07T07:06:21.888Z,23.93
2023-03-07T07:08:51.569Z,23.92
2023-03-07T07:11:21.131Z,23.90
2023-03-07T07:13:52.207Z,23.87
2023-03-07T07:16:22.085Z,23.86
2023-03-07T07:18:54.556Z,23.85
2023-03-07T07:21:24.147Z,23.83
2023-03-07T07:23:53.818Z,23.83
2023-03-07T07:26:23.552Z,23.82
2023-03-07T07:28:53.444Z,23.81
2023-03-07T07:31:23.174Z,23.80
2023-03-07T07:33:52.769Z,23.77
2023-03-07T07:36:22.962Z,23.77
2023-03-07T07:38:52.937Z,23.77
2023-03-07T07:41:22.616Z,23.75
2023-03-07T07:43:55.759Z,23.74
2023-03-07T07:46:25.563Z,23.74
2023-03-07T07:48:55.192Z,23.73
2023-03-07T07:51:24.758Z,23.72
2023-03-07T07:53:54.372Z,23.70
2023-03-07T07:56:24.049Z,23.69
2023-03-07T07:58:54.045Z,23.69
2023-03-07T08:01:25.145Z,23.70
2023-03-07T08:03:54.836Z,23.66
2023-03-07T08:06:26.368Z,23.67
2023-03-07T08:08:56.481Z,23.67
2023-03-07T08:11:26.201Z,23.64
2023-03-07T08:13:55.905Z,23.65
2023-03-07T08:16:25.870Z,23.64
2023-03-07T08:19:00.102Z,23.65
2023-03-07T08:21:29.181Z,23.66
2023-03-07T08:23:58.924Z,23.62
2023-03-07T08:26:28.707Z,23.63
2023-03-07T08:28:58.384Z,23.64
2023-03-07T08:31:28.183Z,23.62
2023-03-07T08:33:57.975Z,23.61
2023-03-07T08:36:27.701Z,23.63
2023-03-07T08:38:57.270Z,23.61
2023-03-07T08:41:26.896Z,23.61
2023-03-07T08:43:56.487Z,23.56
2023-03-07T08:46:26.114Z,23.59
2023-03-07T08:48:55.817Z,23.59
2023-03-07T08:51:25.557Z,23.59
2023-03-07T08:53:55.244Z,23.56
2023-03-07T08:56:24.896Z,23.55
2023-03-07T08:58:57.620Z,23.55
2023-03-07T09:01:27.537Z,23.55
2023-03-07T09:03:57.234Z,23.53
2023-03-07T09:06:26.791Z,23.53
2023-03-07T09:08:56.514Z,23.53
2023-03-07T09:11:28.074Z,23.51
2023-03-07T09:13:57.763Z,23.50
2023-03-07T09:16:27.363Z,23.50
2023-03-07T09:18:57.033Z,23.47
2023-03-07T09:21:26.734Z,23.48
2023-03-07T09:23:56.450Z,23.47
2023-03-07T09:26:26.158Z,23.46
2023-03-07T09:28:55.813Z,23.45
2023-03-07T09:31:25.458Z,23.47
2023-03-07T09:33:55.359Z,23.46
2023-03-07T09:36:25.061Z,23.44
2023-03-07T09:38:56.155Z,23.42
2023-03-07T09:41:36.266Z,23.43
2023-03-07T09:44:30.100Z,23.42
2023-03-07T09:47:32.950Z,23.43
2023-03-07T09:50:03.429Z,23.40
2023-03-07T09:52:35.804Z,23.41
2023-03-07T09:55:13.755Z,23.39
2023-03-07T09:58:02.465Z,23.38
2023-03-07T10:00:47.505Z,23.39
2023-03-07T10:03:53.711Z,23.39
2023-03-07T10:06:41.052Z,23.37
2023-03-07T10:09:17.124Z,23.38
2023-03-07T10:12:12.926Z,23.35
2023-03-07T10:14:48.641Z,23.36
2023-03-07T10:17:18.248Z,23.34
2023-03-07T10:19:59.595Z,23.33
2023-03-07T10:22:41.896Z,23.35
2023-03-07T10:25:32.784Z,23.32
2023-03-07T10:28:26.346Z,23.34
2023-03-07T10:31:00.121Z,23.34
2023-03-07T10:33:29.710Z,23.31
2023-03-07T10:36:08.878Z,23.32
2023-03-07T10:38:44.671Z,23.36
2023-03-07T10:41:18.841Z,23.35
2023-03-07T10:43:49.005Z,23.36
2023-03-07T10:46:44.081Z,23.35
2023-03-07T10:49:46.163Z,23.33
2023-03-07T10:52:28.854Z,23.28
2023-03-07T10:55:19.085Z,23.30
2023-03-07T10:57:48.685Z,23.27
2023-03-07T11:00:20.542Z,23.24
2023-03-07T11:02:50.370Z,23.24
2023-03-07T11:05:34.669Z,23.18
2023-03-07T11:08:22.029Z,23.18
2023-03-07T11:10:51.700Z,23.15
2023-03-07T11:13:22.714Z,23.12
2023-03-07T11:16:00.224Z,23.12
2023-03-07T11:18:45.709Z,23.10
2023-03-07T11:21:34.462Z,23.08
2023-03-07T11:24:08.986Z,23.07
2023-03-07T11:26:42.236Z,23.05
2023-03-07T11:29:16.017Z,23.03
2023-03-07T11:32:07.493Z,23.04
2023-03-07T11:34:38.097Z,23.04
2023-03-07T11:37:16.848Z,23.04
2023-03-07T11:40:10.422Z,23.03
2023-03-07T11:43:18.235Z,23.02
2023-03-07T11:46:00.452Z,23.02
2023-03-07T11:48:36.053Z,22.99
2023-03-07T11:51:06.182Z,22.99
2023-03-07T11:53:55.558Z,23.00
2023-03-07T11:56:36.160Z,22.98
2023-03-07T11:59:30.096Z,22.97
2023-03-07T12:02:00.806Z,22.92
2023-03-07T12:04:42.610Z,22.93
2023-03-07T12:07:19.690Z,22.94
2023-03-07T12:09:55.980Z,22.93
2023-03-07T12:12:41.006Z,22.90
2023-03-07T12:15:31.094Z,22.94
2023-03-07T12:18:12.787Z,22.89
2023-03-07T12:20:48.424Z,22.87
2023-03-07T12:23:29.566Z,22.88
2023-03-07T12:26:01.072Z,22.86
2023-03-07T12:28:34.031Z,22.87
2023-03-07T12:31:31.142Z,22.87
2023-03-07T12:34:00.913Z,22.88
2023-03-07T12:36:38.129Z,22.87
2023-03-07T12:39:20.030Z,22.85
2023-03-07T12:42:07.568Z,22.83
2023-03-07T12:44:53.497Z,22.83
2023-03-07T12:47:53.029Z,22.83
2023-03-07T12:50:24.132Z,22.81
2023-03-07T12:52:59.398Z,22.81
2023-03-07T12:55:43.748Z,22.80
2023-03-07T12:58:35.924Z,22.81
2023-03-07T13:01:16.843Z,22.80
2023-03-07T13:04:11.951Z,22.80
2023-03-07T13:06:43.250Z,22.79
2023-03-07T13:09:24.811Z,22.75
2023-03-07T13:12:21.498Z,22.78
2023-03-07T13:15:19.923Z,22.76
2023-03-07T13:17:49.470Z,22.75
2023-03-07T13:20:21.803Z,22.75
2023-03-07T13:22:51.523Z,22.76
2023-03-07T13:25:39.053Z,22.72
2023-03-07T13:28:32.659Z,22.74
2023-03-07T13:31:31.833Z,22.72
2023-03-07T13:34:39.166Z,22.72
2023-03-07T13:37:44.970Z,22.68
2023-03-07T13:40:28.056Z,22.69
2023-03-07T13:42:57.846Z,22.67
2023-03-07T13:45:42.724Z,22.65
2023-03-07T13:48:38.186Z,22.67
2023-03-07T13:51:11.441Z,22.66
2023-03-07T13:53:48.303Z,22.65
2023-03-07T13:56:17.947Z,22.65
2023-03-07T13:59:05.618Z,22.65
2023-03-07T14:01:40.983Z,22.64
2023-03-07T14:04:40.273Z,22.65
2023-03-07T14:07:29.549Z,22.61
2023-03-07T14:10:22.764Z,22.61
2023-03-07T14:13:31.252Z,22.61
2023-03-07T14:16:19.616Z,22.60
2023-03-07T14:18:58.652Z,22.58
2023-03-07T14:21:48.448Z,22.56
2023-03-07T14:24:53.282Z,22.56
2023-03-07T14:27:22.903Z,22.56
2023-03-07T14:29:54.213Z,22.56
2023-03-07T14:32:33.521Z,22.57
2023-03-07T14:35:03.226Z,22.55
2023-03-07T14:37:34.181Z,22.57
2023-03-07T14:40:15.927Z,22.57
2023-03-07T14:43:01.190Z,22.59
2023-03-07T14:45:51.293Z,22.56
2023-03-07T14:49:16.851Z,22.55
2023-03-07T14:51:46.522Z,22.55
2023-03-07T14:54:23.396Z,22.53
2023-03-07T14:56:54.173Z,22.53
2023-03-07T14:59:29.150Z,22.53
2023-03-07T15:01:59.734Z,22.54
2023-03-07T15:04:33.493Z,22.54
2023-03-07T15:07:05.903Z,22.53
2023-03-07T15:09:36.051Z,22.51
2023-03-07T15:12:20.771Z,22.51
2023-03-07T15:14:56.321Z,22.53
2023-03-07T15:17:28.230Z,22.54
2023-03-07T15:20:06.149Z,22.54
2023-03-07T15:22:40.925Z,22.55
2023-03-07T15:25:31.787Z,22.54
2023-03-07T15:28:32.331Z,22.54
2023-03-07T15:31:02.082Z,22.51
2023-03-07T15:33:32.856Z,22.51
2023-03-07T15:36:31.710Z,22.52
2023-03-07T15:39:32.748Z,22.50
2023-03-07T15:42:03.947Z,22.49
2023-03-07T15:44:34.532Z,22.49
2023-03-07T15:47:15.137Z,22.48
2023-03-07T15:49:51.002Z,22.49
2023-03-07T15:52:52.185Z,22.49
2023-03-07T15:55:23.102Z,22.48
2023-03-07T15:57:54.961Z,22.48
2023-03-07T16:00:29.642Z,22.48
2023-03-07T16:03:16.040Z,22.47
2023-03-07T16:05:45.724Z,22.46
2023-03-07T16:08:16.890Z,22.45
2023-03-07T16:10:54.615Z,22.45
2023-03-07T16:13:25.363Z,22.46
2023-03-07T16:16:23.209Z,22.46
2023-03-07T16:18:53.041Z,22.46
2023-03-07T16:21:23.170Z,22.45
2023-03-07T16:23:52.939Z,22.45
2023-03-07T16:26:26.124Z,22.45
2023-03-07T16:28:55.924Z,22.45
2023-03-07T16:31:25.547Z,22.44
2023-03-07T16:33:56.418Z,22.45
2023-03-07T16:36:26.037Z,22.46
2023-03-07T16:38:55.573Z,22.45
2023-03-07T16:41:25.715Z,22.43
2023-03-07T16:43:59.094Z,22.43
2023-03-07T16:46:28.796Z,22.42
2023-03-07T16:48:58.455Z,22.43
2023-03-07T16:51:29.826Z,22.43
2023-03-07T16:54:01.250Z,22.43
2023-03-07T16:56:35.986Z,22.43
2023-03-07T16:59:05.939Z,22.42
2023-03-07T17:01:35.564Z,22.43
2023-03-07T17:04:05.201Z,22.41
2023-03-07T17:06:39.444Z,22.42
2023-03-07T17:09:11.097Z,22.41
2023-03-07T17:11:42.547Z,22.41
2023-03-07T17:14:12.175Z,22.42
2023-03-07T17:16:52.072Z,22.41
2023-03-07T17:19:33.429Z,22.40
2023-03-07T17:22:04.350Z,22.40
2023-03-07T17:24:33.988Z,22.40
2023-03-07T17:27:05.125Z,22.38
2023-03-07T17:29:45.676Z,22.38
2023-03-07T17:32:15.305Z,22.38
2023-03-07T17:34:45.118Z,22.38
2023-03-07T17:37:15.182Z,22.39
2023-03-07T17:39:45.203Z,22.37
2023-03-07T17:42:14.990Z,22.38
2023-03-07T17:44:44.569Z,22.39
2023-03-07T17:47:14.147Z,22.39
2023-03-07T17:49:45.743Z,22.37
2023-03-07T17:52:16.433Z,22.37
2023-03-07T17:54:47.460Z,22.39
2023-03-07T17:57:17.833Z,22.38
2023-03-07T17:59:47.449Z,22.38
2023-03-07T18:02:17.221Z,22.37
2023-03-07T18:04:46.915Z,22.38
2023-03-07T18:07:19.822Z,22.37
2023-03-07T18:09:56.107Z,22.37
2023-03-07T18:12:32.226Z,22.39
2023-03-07T18:15:01.929Z,22.37
2023-03-07T18:17:46.846Z,22.35
2023-03-07T18:20:17.007Z,22.36
2023-03-07T18:22:46.703Z,22.36
2023-03-07T18:25:17.379Z,22.38
2023-03-07T18:27:47.107Z,22.38
2023-03-07T18:30:17.201Z,22.38
2023-03-07T18:32:46.878Z,22.35
2023-03-07T18:35:19.483Z,22.37
2023-03-07T18:37:49.065Z,22.34
2023-03-07T18:40:21.908Z,22.36
2023-03-07T18:42:51.682Z,22.37
2023-03-07T18:45:21.368Z,22.36
2023-03-07T18:47:51.052Z,22.35
2023-03-07T18:50:20.753Z,22.33
2023-03-07T18:52:51.908Z,22.34
2023-03-07T18:55:21.617Z,22.35
2023-03-07T18:57:51.258Z,22.34
2023-03-07T19:00:21.199Z,22.34
2023-03-07T19:02:50.888Z,22.35
2023-03-07T19:05:20.509Z,22.33
2023-03-07T19:07:50.165Z,22.32
2023-03-07T19:10:19.994Z,22.33
2023-03-07T19:12:49.605Z,22.34
2023-03-07T19:15:19.333Z,22.32
2023-03-07T19:17:49.024Z,22.34
2023-03-07T19:20:18.733Z,22.33
2023-03-07T19:22:48.313Z,22.34
2023-03-07T19:25:18.179Z,22.33
2023-03-07T19:27:47.824Z,22.33
2023-03-07T19:30:17.623Z,22.33
2023-03-07T19:32:47.522Z,22.30
2023-03-07T19:35:17.287Z,22.31
2023-03-07T19:37:46.798Z,22.31
2023-03-07T19:40:16.465Z,22.31
2023-03-07T19:42:46.121Z,22.32
2023-03-07T19:45:15.870Z,22.31
2023-03-07T19:47:45.505Z,22.32
2023-03-07T19:50:15.110Z,22.33
2023-03-07T19:52:44.646Z,22.30
2023-03-07T19:55:14.350Z,22.28
2023-03-07T19:57:44.080Z,22.28
2023-03-07T20:00:15.227Z,22.30
2023-03-07T20:02:44.868Z,22.26
2023-03-07T20:05:14.469Z,22.29
2023-03-07T20:07:44.304Z,22.27
2023-03-07T20:10:14.139Z,22.26
2023-03-07T20:12:43.875Z,22.26
2023-03-07T20:15:14.395Z,22.27
2023-03-07T20:17:44.037Z,22.27
2023-03-07T20:20:14.264Z,22.26
2023-03-07T20:22:44.042Z,22.25
2023-03-07T20:25:13.652Z,22.26
2023-03-07T20:27:43.233Z,22.23
2023-03-07T20:30:13.884Z,22.24
2023-03-07T20:32:43.635Z,22.26
2023-03-07T20:35:13.275Z,22.26
2023-03-07T20:37:42.895Z,22.26
2023-03-07T20:40:13.242Z,22.24
2023-03-07T20:42:42.854Z,22.26
2023-03-07T20:45:13.300Z,22.25
2023-03-07T20:47:42.891Z,22.25
2023-03-07T20:50:13.290Z,22.27
2023-03-07T20:52:42.916Z,22.24
2023-03-07T20:55:12.737Z,22.26
2023-03-07T20:57:42.321Z,22.26
2023-03-07T21:00:13.076Z,22.26
2023-03-07T21:02:43.405Z,22.26
2023-03-07T21:05:12.994Z,22.32
2023-03-07T21:07:42.785Z,22.46
2023-03-07T21:10:13.877Z,22.87
2023-03-07T21:12:43.444Z,23.38
2023-03-07T21:15:13.499Z,23.91
2023-03-07T21:17:43.365Z,24.63
2023-03-07T21:20:14.107Z,25.52
2023-03-07T21:22:43.686Z,26.14
2023-03-07T21:25:13.217Z,26.56
2023-03-07T21:27:42.972Z,26.79
2023-03-07T21:30:13.139Z,27.08
2023-03-07T21:32:42.853Z,27.32
2023-03-07T21:35:12.977Z,27.53
2023-03-07T21:37:42.666Z,27.73
2023-03-07T21:40:12.984Z,27.82
2023-03-07T21:42:42.666Z,27.97
2023-03-07T21:45:13.746Z,28.09
2023-03-07T21:47:43.886Z,28.11
2023-03-07T21:50:14.242Z,28.23
2023-03-07T21:52:44.021Z,28.35
2023-03-07T21:55:15.187Z,28.54
2023-03-07T21:57:45.178Z,28.48
2023-03-07T22:00:18.356Z,28.69
2023-03-07T22:02:48.047Z,28.70
2023-03-07T22:05:17.629Z,28.78
2023-03-07T22:07:47.382Z,28.73
2023-03-07T22:10:16.981Z,28.41
2023-03-07T22:12:46.569Z,28.06
2023-03-07T22:15:16.960Z,27.73
2023-03-07T22:17:46.545Z,27.54
2023-03-07T22:20:16.334Z,27.35
2023-03-07T22:22:46.073Z,27.23
2023-03-07T22:25:15.725Z,27.12
2023-03-07T22:27:46.923Z,27.00
2023-03-07T22:30:16.637Z,26.94
2023-03-07T22:32:49.423Z,26.93
2023-03-07T22:35:19.270Z,26.89
2023-03-07T22:37:48.917Z,26.85
2023-03-07T22:40:18.615Z,26.82
2023-03-07T22:42:48.211Z,26.82
2023-03-07T22:45:17.890Z,26.82
2023-03-07T22:47:47.607Z,26.83
2023-03-07T22:50:17.267Z,26.90
2023-03-07T22:52:46.972Z,26.93
2023-03-07T22:55:16.558Z,26.94
2023-03-07T22:57:46.158Z,26.99
2023-03-07T23:00:16.360Z,27.00
2023-03-07T23:02:46.107Z,26.99
2023-03-07T23:05:15.719Z,26.99
2023-03-07T23:07:47.165Z,26.77
2023-03-07T23:10:18.586Z,26.55
2023-03-07T23:12:51.165Z,26.41
2023-03-07T23:15:20.976Z,26.52
2023-03-07T23:17:50.924Z,26.74
2023-03-07T23:20:21.320Z,26.95
2023-03-07T23:22:51.202Z,27.03
2023-03-07T23:25:21.127Z,26.98
2023-03-07T23:27:50.763Z,26.92
2023-03-07T23:30:21.038Z,26.85
2023-03-07T23:32:50.608Z,26.76
2023-03-07T23:35:20.297Z,26.73
2023-03-07T23:37:50.389Z,26.78
2023-03-07T23:40:20.117Z,26.95
2023-03-07T23:42:50.140Z,26.98
2023-03-07T23:45:22.022Z,26.89
2023-03-07T23:47:52.150Z,26.68
2023-03-07T23:50:22.010Z,26.50
2023-03-07T23:52:51.845Z,26.59
2023-03-07T23:55:21.538Z,26.79
2023-03-07T23:57:51.206Z,27.01
